CMA CGM Volga — 5BJR2 — position and weather

sailwx.info

Track history (hours):
 
Tides and Currents Weather Stations Pressure Air Temp Water Temp Dewpoint Dewpoint Depression Visibility Wind Speed Wind Dir Waves Ship Positions

CMA CGM Volga

Last reported at 2015-May-07 00:08 UTC. Time now 2015-May-07 01:35 UTC.
Position N 54°38' E 019°55'.

Length 184 m; draft 8 m.

Type: Ship (hazmat cat A). MMSI: 212456000.

Date/timePositionNaut miles runAvg speedWind from/ knotsBaromVisibWave heightAir tempDewpointWater temp
2015-May-07 00:08N 54°38' E 019°55'0 0.0
2015-May-06 23:22N 54°38' E 019°55'0 0.0
2015-May-06 22:23N 54°38' E 019°55'0 0.0
2015-May-06 20:32N 54°38' E 019°55'0 0.0
2015-May-06 19:23N 54°38' E 019°55'0 0.0
2015-May-06 17:12N 54°38' E 019°55'0 0.0
2015-May-06 16:09N 54°38' E 019°55'9 0.9
2015-May-06 06:22N 54°42' E 019°41'6 7.0
2015-May-06 05:33N 54°44' E 019°32'7 7.3
2015-May-06 04:33N 54°41' E 019°21'1010.5
2015-May-06 03:33N 54°35' E 019°06'1212.3
2015-May-06 02:33N 54°26' E 018°53'6 6.1
2015-May-06 01:33N 54°23' E 018°43'0 0.0
2015-May-06 00:30N 54°23' E 018°43'0 0.0
2015-May-05 23:31N 54°23' E 018°43'0 0.0
2015-May-05 22:31N 54°23' E 018°43'0 0.0
2015-May-05 21:31N 54°23' E 018°43'0 0.0
2015-May-05 20:22N 54°23' E 018°43'0 0.0
2015-May-05 19:34N 54°23' E 018°43'0 0.0
2015-May-05 18:34N 54°23' E 018°43'0 0.0
2015-May-05 17:31N 54°23' E 018°43'0 0.0
2015-May-05 16:34N 54°23' E 018°43'0 0.0
2015-May-05 15:34N 54°23' E 018°43'0 0.0
2015-May-05 14:28N 54°23' E 018°43'0 0.0
2015-May-05 13:31N 54°23' E 018°43'0 0.0
2015-May-05 12:31N 54°23' E 018°43'0 0.0
2015-May-05 11:34N 54°23' E 018°43'0 0.0
2015-May-05 10:28N 54°23' E 018°43'0 0.0
2015-May-05 09:31N 54°23' E 018°43'0 0.0
2015-May-05 08:33N 54°23' E 018°43'0 0.0
2015-May-05 07:31N 54°23' E 018°43'0 0.0
2015-May-05 06:31N 54°23' E 018°43'0 0.0
2015-May-05 05:28N 54°23' E 018°43'0 0.0
2015-May-05 04:28N 54°23' E 018°43'0 0.0
2015-May-05 03:28N 54°23' E 018°43'0 0.0
2015-May-05 02:34N 54°23' E 018°43'0 0.0
2015-May-05 01:34N 54°23' E 018°43'0 0.0
2015-May-05 00:25N 54°23' E 018°43'0 0.0
2015-May-04 23:31N 54°23' E 018°43'0 0.0
2015-May-04 22:31N 54°23' E 018°43'0 0.0
2015-May-04 21:31N 54°23' E 018°43'0 0.0
2015-May-04 20:25N 54°23' E 018°43'0 0.0
2015-May-04 19:34N 54°23' E 018°43'0 0.0
2015-May-04 18:34N 54°23' E 018°43'0 0.1
2015-May-04 17:31N 54°23' E 018°43'0 0.0
2015-May-04 16:31N 54°23' E 018°43'0 0.0
2015-May-04 15:33N 54°23' E 018°43'0 0.0
2015-May-04 14:30N 54°23' E 018°43'0 0.0
2015-May-04 13:27N 54°23' E 018°43'0 0.0
2015-May-04 12:30N 54°23' E 018°43'0 0.0
2015-May-04 11:33N 54°23' E 018°43'0 0.0
2015-May-04 10:30N 54°23' E 018°43'0 0.0
2015-May-04 09:27N 54°23' E 018°43'0 0.0
2015-May-04 08:33N 54°23' E 018°43'0 0.0
2015-May-04 07:09N 54°23' E 018°43'0 0.0
2015-May-04 06:33N 54°23' E 018°43'0 0.0
2015-May-04 05:33N 54°23' E 018°43'0 0.0
2015-May-04 04:24N 54°23' E 018°43'0 0.0
2015-May-04 03:33N 54°23' E 018°43'1 1.4
2015-May-04 02:33N 54°24' E 018°45'8 8.5
2015-May-04 01:33N 54°29' E 018°57'1110.6
2015-May-04 00:34N 54°39' E 019°03'1211.7
2015-May-03 23:33N 54°49' E 019°12'1313.2
2015-May-03 22:33N 54°58' E 019°29'1313.3
2015-May-03 21:33N 55°08' E 019°45'1313.3
2015-May-03 20:33N 55°17' E 020°02'  
2015-May-01 00:07N 59°36' E 023°11'813.3
2015-Apr-30 23:32N 59°38' E 023°25'1313.3
2015-Apr-30 22:33N 59°42' E 023°50'1313.4
2015-Apr-30 21:34N 59°45' E 024°16'1312.5
2015-Apr-30 20:32N 59°41' E 024°40'9 0.9
2015-Apr-30 10:33N 59°35' E 024°53'1111.5
2015-Apr-30 09:33N 59°42' E 024°35'2913.9
2015-Apr-30 07:28N 59°36' E 023°39'30814.4
2015-Apr-29 10:09N 55°06' E 019°05'915.3
2015-Apr-29 09:33N 54°57' E 019°05'1515.2
2015-Apr-29 08:33N 54°42' E 019°06'1313.5
2015-Apr-29 07:34N 54°28' E 019°01'1111.3
2015-Apr-29 06:34N 54°24' E 018°43'0 0.4
2015-Apr-29 05:31N 54°23' E 018°43'0 0.0
2015-Apr-29 04:25N 54°23' E 018°43'0 0.0
2015-Apr-29 03:31N 54°23' E 018°43'0 0.0
2015-Apr-29 02:31N 54°23' E 018°43'0 0.0
2015-Apr-29 01:25N 54°23' E 018°43'0 0.0
2015-Apr-29 00:31N 54°23' E 018°43'0 0.0
2015-Apr-28 23:31N 54°23' E 018°43'0 0.0
2015-Apr-28 22:31N 54°23' E 018°43'0 0.0
2015-Apr-28 21:31N 54°23' E 018°43'0 0.0
2015-Apr-28 20:31N 54°23' E 018°43'0 0.0
2015-Apr-28 19:31N 54°23' E 018°43'0 0.0
2015-Apr-28 18:25N 54°23' E 018°43'0 0.0
2015-Apr-28 17:31N 54°23' E 018°43'0 0.0
2015-Apr-28 16:19N 54°23' E 018°43'0 0.0
2015-Apr-28 15:31N 54°23' E 018°43'0 0.0
2015-Apr-28 14:31N 54°23' E 018°43'0 0.0
2015-Apr-28 13:25N 54°23' E 018°43'0 0.0
2015-Apr-28 12:32N 54°23' E 018°43'0 0.0
2015-Apr-28 11:29N 54°23' E 018°43'0 0.0
2015-Apr-28 10:28N 54°23' E 018°43'0 0.0
2015-Apr-28 09:31N 54°23' E 018°43'0 0.0
2015-Apr-28 08:31N 54°23' E 018°43'0 0.0
2015-Apr-28 07:32N 54°23' E 018°43'0 0.0
2015-Apr-28 06:31N 54°23' E 018°43'0 0.0
2015-Apr-28 05:31N 54°23' E 018°43'2 2.0
2015-Apr-28 04:33N 54°24' E 018°46'7 7.0
2015-Apr-28 03:33N 54°28' E 018°57'1313.3
2015-Apr-28 02:33N 54°40' E 019°03'1615.8
2015-Apr-28 01:33N 54°55' E 019°12'  
Track history (hours):
 
Tides and Currents Weather Stations Pressure Air Temp Water Temp Dewpoint Dewpoint Depression Visibility Wind Speed Wind Dir Waves Ship Positions

CMA CGM Volga

Last reported at 2015-May-07 00:08 UTC. Time now 2015-May-07 01:35 UTC.
Position N 54°38' E 019°55'.

Length 184 m; draft 8 m.

Type: Ship (hazmat cat A). MMSI: 212456000.

Date/timePositionNaut miles runAvg speedWind from/ knotsBaromVisibWave heightAir tempDewpointWater temp
2015-May-07 00:08N 54°38' E 019°55'0 0.0
2015-May-06 23:22N 54°38' E 019°55'0 0.0
2015-May-06 22:23N 54°38' E 019°55'0 0.0
2015-May-06 20:32N 54°38' E 019°55'0 0.0
2015-May-06 19:23N 54°38' E 019°55'0 0.0
2015-May-06 17:12N 54°38' E 019°55'0 0.0
2015-May-06 16:09N 54°38' E 019°55'9 0.9
2015-May-06 06:22N 54°42' E 019°41'6 7.0
2015-May-06 05:33N 54°44' E 019°32'7 7.3
2015-May-06 04:33N 54°41' E 019°21'1010.5
2015-May-06 03:33N 54°35' E 019°06'1212.3
2015-May-06 02:33N 54°26' E 018°53'6 6.1
2015-May-06 01:33N 54°23' E 018°43'0 0.0
2015-May-06 00:30N 54°23' E 018°43'0 0.0
2015-May-05 23:31N 54°23' E 018°43'0 0.0
2015-May-05 22:31N 54°23' E 018°43'0 0.0
2015-May-05 21:31N 54°23' E 018°43'0 0.0
2015-May-05 20:22N 54°23' E 018°43'0 0.0
2015-May-05 19:34N 54°23' E 018°43'0 0.0
2015-May-05 18:34N 54°23' E 018°43'0 0.0
2015-May-05 17:31N 54°23' E 018°43'0 0.0
2015-May-05 16:34N 54°23' E 018°43'0 0.0
2015-May-05 15:34N 54°23' E 018°43'0 0.0
2015-May-05 14:28N 54°23' E 018°43'0 0.0
2015-May-05 13:31N 54°23' E 018°43'0 0.0
2015-May-05 12:31N 54°23' E 018°43'0 0.0
2015-May-05 11:34N 54°23' E 018°43'0 0.0
2015-May-05 10:28N 54°23' E 018°43'0 0.0
2015-May-05 09:31N 54°23' E 018°43'0 0.0
2015-May-05 08:33N 54°23' E 018°43'0 0.0
2015-May-05 07:31N 54°23' E 018°43'0 0.0
2015-May-05 06:31N 54°23' E 018°43'0 0.0
2015-May-05 05:28N 54°23' E 018°43'0 0.0
2015-May-05 04:28N 54°23' E 018°43'0 0.0
2015-May-05 03:28N 54°23' E 018°43'0 0.0
2015-May-05 02:34N 54°23' E 018°43'0 0.0
2015-May-05 01:34N 54°23' E 018°43'0 0.0
2015-May-05 00:25N 54°23' E 018°43'0 0.0
2015-May-04 23:31N 54°23' E 018°43'0 0.0
2015-May-04 22:31N 54°23' E 018°43'0 0.0
2015-May-04 21:31N 54°23' E 018°43'0 0.0
2015-May-04 20:25N 54°23' E 018°43'0 0.0
2015-May-04 19:34N 54°23' E 018°43'0 0.0
2015-May-04 18:34N 54°23' E 018°43'0 0.1
2015-May-04 17:31N 54°23' E 018°43'0 0.0
2015-May-04 16:31N 54°23' E 018°43'0 0.0
2015-May-04 15:33N 54°23' E 018°43'0 0.0
2015-May-04 14:30N 54°23' E 018°43'0 0.0
2015-May-04 13:27N 54°23' E 018°43'0 0.0
2015-May-04 12:30N 54°23' E 018°43'0 0.0
2015-May-04 11:33N 54°23' E 018°43'0 0.0
2015-May-04 10:30N 54°23' E 018°43'0 0.0
2015-May-04 09:27N 54°23' E 018°43'0 0.0
2015-May-04 08:33N 54°23' E 018°43'0 0.0
2015-May-04 07:09N 54°23' E 018°43'0 0.0
2015-May-04 06:33N 54°23' E 018°43'0 0.0
2015-May-04 05:33N 54°23' E 018°43'0 0.0
2015-May-04 04:24N 54°23' E 018°43'0 0.0
2015-May-04 03:33N 54°23' E 018°43'1 1.4
2015-May-04 02:33N 54°24' E 018°45'8 8.5
2015-May-04 01:33N 54°29' E 018°57'1110.6
2015-May-04 00:34N 54°39' E 019°03'1211.7
2015-May-03 23:33N 54°49' E 019°12'1313.2
2015-May-03 22:33N 54°58' E 019°29'1313.3
2015-May-03 21:33N 55°08' E 019°45'1313.3
2015-May-03 20:33N 55°17' E 020°02'  
2015-May-01 00:07N 59°36' E 023°11'813.3
2015-Apr-30 23:32N 59°38' E 023°25'1313.3
2015-Apr-30 22:33N 59°42' E 023°50'1313.4
2015-Apr-30 21:34N 59°45' E 024°16'1312.5
2015-Apr-30 20:32N 59°41' E 024°40'9 0.9
2015-Apr-30 10:33N 59°35' E 024°53'1111.5
2015-Apr-30 09:33N 59°42' E 024°35'2913.9
2015-Apr-30 07:28N 59°36' E 023°39'30814.4
2015-Apr-29 10:09N 55°06' E 019°05'915.3
2015-Apr-29 09:33N 54°57' E 019°05'1515.2
2015-Apr-29 08:33N 54°42' E 019°06'1313.5
2015-Apr-29 07:34N 54°28' E 019°01'1111.3
2015-Apr-29 06:34N 54°24' E 018°43'0 0.4
2015-Apr-29 05:31N 54°23' E 018°43'0 0.0
2015-Apr-29 04:25N 54°23' E 018°43'0 0.0
2015-Apr-29 03:31N 54°23' E 018°43'0 0.0
2015-Apr-29 02:31N 54°23' E 018°43'0 0.0
2015-Apr-29 01:25N 54°23' E 018°43'0 0.0
2015-Apr-29 00:31N 54°23' E 018°43'0 0.0
2015-Apr-28 23:31N 54°23' E 018°43'0 0.0
2015-Apr-28 22:31N 54°23' E 018°43'0 0.0
2015-Apr-28 21:31N 54°23' E 018°43'0 0.0
2015-Apr-28 20:31N 54°23' E 018°43'0 0.0
2015-Apr-28 19:31N 54°23' E 018°43'0 0.0
2015-Apr-28 18:25N 54°23' E 018°43'0 0.0
2015-Apr-28 17:31N 54°23' E 018°43'0 0.0
2015-Apr-28 16:19N 54°23' E 018°43'0 0.0
2015-Apr-28 15:31N 54°23' E 018°43'0 0.0
2015-Apr-28 14:31N 54°23' E 018°43'0 0.0
2015-Apr-28 13:25N 54°23' E 018°43'0 0.0
2015-Apr-28 12:32N 54°23' E 018°43'0 0.0
2015-Apr-28 11:29N 54°23' E 018°43'0 0.0
2015-Apr-28 10:28N 54°23' E 018°43'0 0.0
2015-Apr-28 09:31N 54°23' E 018°43'0 0.0
2015-Apr-28 08:31N 54°23' E 018°43'0 0.0
2015-Apr-28 07:32N 54°23' E 018°43'0 0.0
2015-Apr-28 06:31N 54°23' E 018°43'0 0.0
2015-Apr-28 05:31N 54°23' E 018°43'2 2.0
2015-Apr-28 04:33N 54°24' E 018°46'7 7.0
2015-Apr-28 03:33N 54°28' E 018°57'1313.3
2015-Apr-28 02:33N 54°40' E 019°03'1615.8
2015-Apr-28 01:33N 54°55' E 019°12'  

Dump ship's entire track history